< < Back
Terminal Aerodrome Forecast


Current Version              Previous Versions:   1  2  3  4  5  6  7  8  9  

Terminal Aerodrome Forecast

838
FTUS42 KGSP 061500 AAA
TAFCLT
TAF AMD
KCLT 061500Z 0615/0712 VRB03KT P6SM FEW250
     FM061600 07004KT P6SM FEW250
     FM061900 10006KT P6SM FEW250
     FM070700 00000KT P6SM SCT250=



Latest METAR

130
SAUS70 KWBC 062100 RRB
MTRCLT
METAR KCLT 062052Z 13007KT 10SM FEW060 BKN250 27/10 A3013 RMK AO2 SLP197
T02720100 56016


USA.gov is the U.S. government's official web portal to all federal, state and local government web resources and services.